createdAt,value
2022-10-31T00:00:38.142Z,9.60
2022-10-31T00:03:10.631Z,8.18
2022-10-31T00:05:40.525Z,6.32
2022-10-31T00:08:10.345Z,7.63
2022-10-31T00:10:41.881Z,6.53
2022-10-31T00:13:12.498Z,5.53
2022-10-31T00:15:43.242Z,5.65
2022-10-31T00:18:15.684Z,5.18
2022-10-31T00:20:45.559Z,5.45
2022-10-31T00:23:15.725Z,13.02
2022-10-31T00:25:45.563Z,13.73
2022-10-31T00:28:15.760Z,8.55
2022-10-31T00:30:45.678Z,4.47
2022-10-31T00:33:18.204Z,5.50
2022-10-31T00:35:53.768Z,4.63
2022-10-31T00:38:23.764Z,4.72
2022-10-31T00:40:53.665Z,3.85
2022-10-31T00:43:23.593Z,4.97
2022-10-31T00:45:53.598Z,8.50
2022-10-31T00:48:26.174Z,8.50
2022-10-31T00:50:56.675Z,7.90
2022-10-31T00:53:26.700Z,5.63
2022-10-31T00:55:56.616Z,7.28
2022-10-31T00:58:26.658Z,5.90
2022-10-31T01:00:58.644Z,5.55
2022-10-31T01:03:32.961Z,5.25
2022-10-31T01:06:04.080Z,6.18
2022-10-31T01:08:36.086Z,4.13
2022-10-31T01:11:09.700Z,4.57
2022-10-31T01:13:39.645Z,3.75
2022-10-31T01:16:12.253Z,2.95
2022-10-31T01:18:44.883Z,3.38
2022-10-31T01:21:16.361Z,3.85
2022-10-31T01:23:46.690Z,6.95
2022-10-31T01:26:19.252Z,4.28
2022-10-31T01:28:50.676Z,3.13
2022-10-31T01:31:21.908Z,3.17
2022-10-31T01:33:54.802Z,3.65
2022-10-31T01:36:26.847Z,4.47
2022-10-31T01:38:59.184Z,4.25
2022-10-31T01:41:31.210Z,4.72
2022-10-31T01:44:03.315Z,7.78
2022-10-31T01:46:36.229Z,8.90
2022-10-31T01:49:13.684Z,8.20
2022-10-31T01:51:49.088Z,6.07
2022-10-31T01:54:20.688Z,6.35
2022-10-31T01:56:54.091Z,6.03
2022-10-31T01:59:25.207Z,4.40
2022-10-31T02:01:55.820Z,4.00
2022-10-31T02:04:29.144Z,3.63
2022-10-31T02:07:02.305Z,3.80
2022-10-31T02:09:33.631Z,3.08
2022-10-31T02:12:06.081Z,3.67
2022-10-31T02:14:36.288Z,2.83
2022-10-31T02:17:07.078Z,3.13
2022-10-31T02:19:54.555Z,3.65
2022-10-31T02:22:30.652Z,2.55
2022-10-31T02:25:13.148Z,2.35
2022-10-31T02:28:10.083Z,3.65
2022-10-31T02:30:46.313Z,3.78
2022-10-31T02:33:26.081Z,3.00
2022-10-31T02:36:02.966Z,2.55
2022-10-31T02:38:47.291Z,3.72
2022-10-31T02:41:28.629Z,3.13
2022-10-31T02:44:10.592Z,3.00
2022-10-31T02:46:46.369Z,4.20
2022-10-31T02:49:26.132Z,4.20
2022-10-31T02:51:56.030Z,3.60
2022-10-31T02:54:28.044Z,5.28
2022-10-31T02:57:02.329Z,5.13
2022-10-31T02:59:33.976Z,4.88
2022-10-31T03:02:34.704Z,4.90
2022-10-31T03:05:27.965Z,3.92
2022-10-31T03:08:03.445Z,3.25
2022-10-31T03:10:39.999Z,2.90
2022-10-31T03:13:13.740Z,2.75
2022-10-31T03:15:47.464Z,2.22
2022-10-31T03:18:21.360Z,1.92
2022-10-31T03:20:58.386Z,2.15
2022-10-31T03:23:29.417Z,1.92
2022-10-31T03:25:59.382Z,2.38
2022-10-31T03:28:33.391Z,1.83
2022-10-31T03:31:06.512Z,2.90
2022-10-31T03:33:41.273Z,2.55
2022-10-31T03:36:15.317Z,2.75
2022-10-31T03:38:48.520Z,3.13
2022-10-31T03:41:23.332Z,3.35
2022-10-31T03:43:59.467Z,2.58
2022-10-31T03:46:29.776Z,2.53
2022-10-31T03:49:01.917Z,2.85
2022-10-31T03:51:38.860Z,2.35
2022-10-31T03:54:13.316Z,2.65
2022-10-31T03:56:47.477Z,3.55
2022-10-31T03:59:20.541Z,3.45
2022-10-31T04:01:54.474Z,2.28
2022-10-31T04:04:24.659Z,1.90
2022-10-31T04:06:58.266Z,2.38
2022-10-31T04:09:29.906Z,2.58
2022-10-31T04:12:01.080Z,3.20
2022-10-31T04:14:51.921Z,2.42
2022-10-31T04:17:23.112Z,2.42
2022-10-31T04:19:53.404Z,2.38
2022-10-31T04:22:25.885Z,3.50
2022-10-31T04:24:56.013Z,4.22
2022-10-31T04:27:25.930Z,4.85
2022-10-31T04:29:55.929Z,4.00
2022-10-31T04:32:25.801Z,4.18
2022-10-31T04:34:56.593Z,4.65
2022-10-31T04:37:29.060Z,3.95
2022-10-31T04:39:59.176Z,4.47
2022-10-31T04:42:47.612Z,3.30
2022-10-31T04:45:21.057Z,3.45
2022-10-31T04:47:54.340Z,4.40
2022-10-31T04:50:24.212Z,4.05
2022-10-31T04:52:57.037Z,3.28
2022-10-31T04:55:30.935Z,4.25
2022-10-31T04:58:21.295Z,3.42
2022-10-31T05:00:55.695Z,3.53
2022-10-31T05:03:25.668Z,3.67
2022-10-31T05:05:55.658Z,3.55
2022-10-31T05:08:28.170Z,3.95
2022-10-31T05:11:03.238Z,3.30
2022-10-31T05:13:34.597Z,3.83
2022-10-31T05:19:23.282Z,2.67
2022-10-31T05:22:24.706Z,1.92
2022-10-31T05:24:57.228Z,2.42
2022-10-31T05:27:27.112Z,3.42
2022-10-31T05:29:56.989Z,2.67
2022-10-31T05:32:26.918Z,3.25
2022-10-31T05:35:18.473Z,3.30
2022-10-31T05:38:13.600Z,3.78
2022-10-31T05:40:46.322Z,4.40
2022-10-31T05:43:16.383Z,3.78
2022-10-31T05:45:46.280Z,3.92
2022-10-31T05:48:34.316Z,3.63
2022-10-31T05:51:30.313Z,3.40
2022-10-31T05:54:00.312Z,4.10
2022-10-31T05:56:33.477Z,3.80
2022-10-31T05:59:03.787Z,3.70
2022-10-31T06:01:33.779Z,4.22
2022-10-31T06:04:08.657Z,4.20
2022-10-31T06:06:40.061Z,4.38
2022-10-31T06:09:10.699Z,4.95
2022-10-31T06:11:43.630Z,5.68
2022-10-31T06:14:36.294Z,5.03
2022-10-31T06:17:07.017Z,5.90
2022-10-31T06:20:10.547Z,4.72
2022-10-31T06:22:52.152Z,5.97
2022-10-31T06:25:22.091Z,6.07
2022-10-31T06:27:55.718Z,8.48
2022-10-31T06:30:29.788Z,6.68
2022-10-31T06:33:05.753Z,8.40
2022-10-31T06:35:38.564Z,7.07
2022-10-31T06:38:08.500Z,5.28
2022-10-31T06:40:42.722Z,5.53
2022-10-31T06:43:27.352Z,5.10
2022-10-31T06:46:16.895Z,4.10
2022-10-31T06:48:57.447Z,5.00
2022-10-31T06:51:39.618Z,5.25
2022-10-31T06:54:09.625Z,6.65
2022-10-31T06:56:40.414Z,5.20
2022-10-31T06:59:12.999Z,4.72
2022-10-31T07:02:03.023Z,4.78
2022-10-31T07:04:33.028Z,5.68
2022-10-31T07:07:02.876Z,5.65
2022-10-31T07:09:36.289Z,6.28
2022-10-31T07:12:08.112Z,6.90
2022-10-31T07:14:44.256Z,7.22
2022-10-31T07:17:14.217Z,7.40
2022-10-31T07:19:47.052Z,6.18
2022-10-31T07:22:19.717Z,6.97
2022-10-31T07:24:49.644Z,6.53
2022-10-31T07:27:42.815Z,6.17
2022-10-31T07:30:19.385Z,6.80
2022-10-31T07:32:51.012Z,7.43
2022-10-31T07:35:23.978Z,6.13
2022-10-31T07:38:00.937Z,6.18
2022-10-31T07:40:31.019Z,6.53
2022-10-31T07:43:01.872Z,6.97
2022-10-31T07:46:03.903Z,5.72
2022-10-31T07:48:52.507Z,5.65
2022-10-31T07:51:46.358Z,6.07
2022-10-31T07:54:39.057Z,5.82
2022-10-31T07:57:12.273Z,6.32
2022-10-31T07:59:42.521Z,6.03
2022-10-31T08:02:17.464Z,6.10
2022-10-31T08:05:05.916Z,5.85
2022-10-31T08:07:56.267Z,5.03
2022-10-31T08:10:26.489Z,5.50
2022-10-31T08:13:02.057Z,5.20
2022-10-31T08:15:33.060Z,6.25
2022-10-31T08:18:05.802Z,5.85
2022-10-31T08:20:36.560Z,5.78
2022-10-31T08:23:07.733Z,5.85
2022-10-31T08:25:39.352Z,5.65
2022-10-31T08:28:10.699Z,5.50
2022-10-31T08:30:41.709Z,5.78
2022-10-31T08:33:32.672Z,6.47
2022-10-31T08:36:21.088Z,5.38
2022-10-31T08:39:01.576Z,5.32
2022-10-31T08:41:32.930Z,5.97
2022-10-31T08:44:04.031Z,5.30
2022-10-31T08:46:35.554Z,8.55
2022-10-31T08:49:08.413Z,8.68
2022-10-31T08:51:38.392Z,9.02
2022-10-31T08:54:08.519Z,8.68
2022-10-31T08:57:13.228Z,9.02
2022-10-31T08:59:46.897Z,32.70
2022-10-31T09:02:16.802Z,11.60
2022-10-31T09:04:49.411Z,7.50
2022-10-31T09:07:21.692Z,8.57
2022-10-31T09:09:52.127Z,7.85
2022-10-31T09:12:23.050Z,8.18
2022-10-31T09:15:22.425Z,7.93
2022-10-31T09:18:17.475Z,7.43
2022-10-31T09:20:56.048Z,7.60
2022-10-31T09:23:26.877Z,7.80
2022-10-31T09:25:57.607Z,6.45
2022-10-31T09:28:40.604Z,6.93
2022-10-31T09:31:14.094Z,6.43
2022-10-31T09:33:58.095Z,7.25
2022-10-31T09:36:50.763Z,5.07
2022-10-31T09:42:27.805Z,5.45
2022-10-31T09:45:05.192Z,5.05
2022-10-31T09:47:49.661Z,4.75
2022-10-31T09:50:40.831Z,4.18
2022-10-31T09:53:38.445Z,3.67
2022-10-31T09:56:10.932Z,4.15
2022-10-31T09:58:47.477Z,4.78
2022-10-31T10:01:34.176Z,3.20
2022-10-31T10:04:09.064Z,3.55
2022-10-31T10:07:02.773Z,3.73
2022-10-31T10:09:55.233Z,3.20
2022-10-31T10:12:54.726Z,4.65
2022-10-31T10:15:35.170Z,4.18
2022-10-31T10:18:12.396Z,10.07
2022-10-31T10:20:48.079Z,5.47
2022-10-31T10:23:39.319Z,8.32
2022-10-31T10:26:19.632Z,4.75
2022-10-31T10:28:52.228Z,4.80
2022-10-31T10:31:25.737Z,3.28
2022-10-31T10:34:05.620Z,3.95
2022-10-31T10:36:40.624Z,3.90
2022-10-31T10:39:18.371Z,2.80
2022-10-31T10:42:04.495Z,3.53
2022-10-31T10:44:46.749Z,4.90
2022-10-31T10:47:29.057Z,3.85
2022-10-31T10:49:58.925Z,3.90
2022-10-31T10:52:50.162Z,3.53
2022-10-31T10:55:27.172Z,3.30
2022-10-31T10:58:02.955Z,3.83
2022-10-31T11:00:35.618Z,4.07
2022-10-31T11:03:06.651Z,4.07
2022-10-31T11:05:40.277Z,3.25
2022-10-31T11:08:10.628Z,4.63
2022-10-31T11:10:40.686Z,149.60
2022-10-31T11:13:24.843Z,11.35
2022-10-31T11:15:59.734Z,3.85
2022-10-31T11:18:31.514Z,4.10
2022-10-31T11:21:03.835Z,7.97
2022-10-31T11:23:34.368Z,4.20
2022-10-31T11:26:06.022Z,4.22
2022-10-31T11:28:38.652Z,3.33
2022-10-31T11:31:11.253Z,4.60
2022-10-31T11:33:44.264Z,3.55
2022-10-31T11:36:21.045Z,4.32
2022-10-31T11:38:51.289Z,3.83
2022-10-31T11:41:22.925Z,4.35
2022-10-31T11:57:04.090Z,3.00
2022-10-31T11:59:35.488Z,2.72
2022-10-31T12:02:05.723Z,4.22
2022-10-31T12:04:41.496Z,2.88
2022-10-31T12:07:11.538Z,5.80
2022-10-31T12:09:42.115Z,3.72
2022-10-31T12:12:41.480Z,4.30
2022-10-31T12:15:24.940Z,2.65
2022-10-31T12:18:00.821Z,3.30
2022-10-31T12:20:39.264Z,6.38
2022-10-31T12:23:16.295Z,4.25
2022-10-31T12:25:52.274Z,3.60
2022-10-31T12:28:45.389Z,3.70
2022-10-31T12:31:27.729Z,5.13
2022-10-31T12:34:04.627Z,4.45
2022-10-31T12:36:43.061Z,2.90
2022-10-31T12:39:27.654Z,2.58
2022-10-31T12:42:04.158Z,2.47
2022-10-31T12:44:48.007Z,3.20
2022-10-31T12:47:51.473Z,3.60
2022-10-31T12:50:30.670Z,2.83
2022-10-31T12:53:09.255Z,3.10
2022-10-31T12:55:52.558Z,3.80
2022-10-31T12:58:26.504Z,3.85
2022-10-31T13:01:08.032Z,2.72
2022-10-31T13:03:43.085Z,3.28
2022-10-31T13:06:19.020Z,4.22
2022-10-31T13:08:51.765Z,2.88
2022-10-31T13:11:26.251Z,3.28
2022-10-31T13:14:03.010Z,2.90
2022-10-31T13:16:39.186Z,3.33
2022-10-31T13:19:14.706Z,3.05
2022-10-31T13:21:49.713Z,2.58
2022-10-31T13:24:24.087Z,3.20
2022-10-31T13:26:56.492Z,3.05
2022-10-31T13:29:31.814Z,2.60
2022-10-31T13:32:08.409Z,3.03
2022-10-31T13:34:41.823Z,2.75
2022-10-31T13:37:20.181Z,3.40
2022-10-31T13:40:02.512Z,2.75
2022-10-31T13:42:44.724Z,2.78
2022-10-31T13:45:20.720Z,3.15
2022-10-31T13:48:03.516Z,3.55
2022-10-31T13:50:35.250Z,4.35
2022-10-31T13:53:15.647Z,3.22
2022-10-31T13:55:46.867Z,3.28
2022-10-31T13:58:28.219Z,3.45
2022-10-31T14:01:16.075Z,3.67
2022-10-31T14:04:07.722Z,3.57
2022-10-31T14:06:42.802Z,2.55
2022-10-31T14:09:23.807Z,3.08
2022-10-31T14:11:54.568Z,2.92
2022-10-31T14:14:25.179Z,3.33
2022-10-31T14:16:59.179Z,2.88
2022-10-31T14:19:31.691Z,2.72
2022-10-31T14:22:01.728Z,2.60
2022-10-31T14:24:37.798Z,3.10
2022-10-31T14:27:38.950Z,2.92
2022-10-31T14:30:23.544Z,2.72
2022-10-31T14:32:55.848Z,3.50
2022-10-31T14:35:31.802Z,4.85
2022-10-31T14:38:27.895Z,4.03
2022-10-31T14:41:20.155Z,3.72
2022-10-31T14:44:21.238Z,4.53
2022-10-31T14:46:56.670Z,4.20
2022-10-31T14:49:39.148Z,3.80
2022-10-31T14:52:16.629Z,3.78
2022-10-31T14:54:49.902Z,4.30
2022-10-31T14:57:23.522Z,4.93
2022-10-31T14:59:57.937Z,7.22
2022-10-31T15:02:35.856Z,8.10
2022-10-31T15:05:07.936Z,5.80
2022-10-31T15:07:41.405Z,8.15
2022-10-31T15:10:26.936Z,11.75
2022-10-31T15:12:57.675Z,12.10
2022-10-31T15:15:29.265Z,15.18
2022-10-31T15:18:02.839Z,15.95
2022-10-31T15:20:34.675Z,12.98
2022-10-31T15:23:07.128Z,21.40
2022-10-31T15:25:38.758Z,19.50
2022-10-31T15:28:17.679Z,27.83
2022-10-31T15:30:54.633Z,48.22
2022-10-31T15:33:33.675Z,51.75
2022-10-31T15:36:08.247Z,58.05
2022-10-31T15:38:40.765Z,58.90
2022-10-31T15:41:25.894Z,66.10
2022-10-31T15:43:55.858Z,37.78
2022-10-31T15:46:28.315Z,34.70
2022-10-31T15:48:58.721Z,23.27
2022-10-31T15:51:36.323Z,20.98
2022-10-31T15:54:08.987Z,26.13
2022-10-31T15:56:39.200Z,24.83
2022-10-31T15:59:09.052Z,27.23
2022-10-31T16:01:39.014Z,30.58
2022-10-31T16:04:25.567Z,34.67
2022-10-31T16:07:04.435Z,27.80
2022-10-31T16:09:37.116Z,27.73
2022-10-31T16:12:07.443Z,29.63
2022-10-31T16:14:42.544Z,35.38
2022-10-31T16:17:15.789Z,34.97
2022-10-31T16:19:53.085Z,33.10
2022-10-31T16:22:29.308Z,32.85
2022-10-31T16:25:07.261Z,36.80
2022-10-31T16:27:38.939Z,29.17
2022-10-31T16:30:33.634Z,20.08
2022-10-31T16:33:04.988Z,17.73
2022-10-31T16:35:37.245Z,10.77
2022-10-31T16:38:07.663Z,12.00
2022-10-31T16:40:42.333Z,11.80
2022-10-31T16:43:15.214Z,14.45
2022-10-31T16:45:47.801Z,21.15
2022-10-31T16:48:20.496Z,44.42
2022-10-31T16:50:50.764Z,50.08
2022-10-31T16:53:20.987Z,29.27
2022-10-31T16:55:58.022Z,26.17
2022-10-31T16:58:33.108Z,20.80
2022-10-31T17:01:03.331Z,23.20
2022-10-31T17:03:33.291Z,21.85
2022-10-31T17:06:03.269Z,23.40
2022-10-31T17:08:34.196Z,37.72
2022-10-31T17:11:07.370Z,36.25
2022-10-31T17:13:37.794Z,28.88
2022-10-31T17:16:08.757Z,28.00
2022-10-31T17:18:38.610Z,34.70
2022-10-31T17:21:09.040Z,33.13
2022-10-31T17:23:38.913Z,29.60
2022-10-31T17:26:11.563Z,22.27
2022-10-31T17:28:41.418Z,27.05
2022-10-31T17:31:20.217Z,25.48
2022-10-31T17:33:50.138Z,22.42
2022-10-31T17:36:20.034Z,16.63
2022-10-31T17:38:49.893Z,20.13
2022-10-31T17:41:22.311Z,25.77
2022-10-31T17:43:52.179Z,28.13
2022-10-31T17:46:22.028Z,32.65
2022-10-31T17:48:51.911Z,31.73
2022-10-31T17:51:21.741Z,27.65
2022-10-31T17:53:51.609Z,27.35
2022-10-31T17:56:24.144Z,19.55
2022-10-31T17:58:54.049Z,13.05
2022-10-31T18:01:24.535Z,11.30
2022-10-31T18:03:54.540Z,10.52
2022-10-31T18:06:24.524Z,12.35
2022-10-31T18:08:56.232Z,11.73
2022-10-31T18:11:28.657Z,11.98
2022-10-31T18:14:00.977Z,9.10
2022-10-31T18:16:30.897Z,15.82
2022-10-31T18:19:01.961Z,13.73
2022-10-31T18:21:32.467Z,14.20
2022-10-31T18:24:03.343Z,13.23
2022-10-31T18:26:35.799Z,10.63
2022-10-31T18:29:06.090Z,8.60
2022-10-31T18:31:35.924Z,6.05
2022-10-31T18:34:05.768Z,11.80
2022-10-31T18:36:35.723Z,6.95
2022-10-31T18:39:06.704Z,8.70
2022-10-31T18:41:39.145Z,6.85
2022-10-31T18:44:10.024Z,4.72
2022-10-31T18:46:40.468Z,4.38
2022-10-31T18:49:10.291Z,4.38
2022-10-31T18:51:40.169Z,4.30
2022-10-31T18:54:10.984Z,4.55
2022-10-31T18:56:43.515Z,5.00
2022-10-31T18:59:14.664Z,6.32
2022-10-31T19:01:44.622Z,8.70
2022-10-31T19:04:14.674Z,10.98
2022-10-31T19:06:44.563Z,12.60
2022-10-31T19:09:14.455Z,11.20
2022-10-31T19:11:46.906Z,10.77
2022-10-31T19:14:16.910Z,14.68
2022-10-31T19:16:46.815Z,22.45
2022-10-31T19:19:16.646Z,19.30
2022-10-31T19:21:46.481Z,22.30
2022-10-31T19:24:16.529Z,10.73
2022-10-31T19:26:49.135Z,14.27
2022-10-31T19:29:19.327Z,11.32
2022-10-31T19:31:49.161Z,21.13
2022-10-31T19:34:19.040Z,22.52
2022-10-31T19:36:48.880Z,24.45
2022-10-31T19:39:18.721Z,15.30
2022-10-31T19:41:51.178Z,25.65
2022-10-31T19:44:21.031Z,17.10
2022-10-31T19:46:54.357Z,18.08
2022-10-31T19:49:24.329Z,15.18
2022-10-31T19:51:54.442Z,14.52
2022-10-31T19:54:24.350Z,12.73
2022-10-31T19:56:56.874Z,12.85
2022-10-31T19:59:26.766Z,10.57
2022-10-31T20:01:56.740Z,11.52
2022-10-31T20:04:26.805Z,12.65
2022-10-31T20:06:56.647Z,10.23
2022-10-31T20:09:26.503Z,11.13
2022-10-31T20:11:58.920Z,9.80
2022-10-31T20:14:28.793Z,10.05
2022-10-31T20:16:58.639Z,13.23
2022-10-31T20:19:28.481Z,14.07
2022-10-31T20:21:58.493Z,16.27
2022-10-31T20:24:28.384Z,22.48
2022-10-31T20:27:00.812Z,20.27
2022-10-31T20:29:30.674Z,19.00
2022-10-31T20:32:00.569Z,16.95
2022-10-31T20:34:30.485Z,19.10
2022-10-31T20:37:00.324Z,18.65
2022-10-31T20:39:30.158Z,17.38
2022-10-31T20:42:02.569Z,10.63
2022-10-31T20:44:32.424Z,10.13
2022-10-31T20:47:02.277Z,8.70
2022-10-31T20:49:33.204Z,13.82
2022-10-31T20:52:03.093Z,10.07
2022-10-31T20:54:32.956Z,11.27
2022-10-31T20:57:05.394Z,15.90
2022-10-31T20:59:35.325Z,14.93
2022-10-31T21:02:05.365Z,10.50
2022-10-31T21:04:35.300Z,9.98
2022-10-31T21:07:05.154Z,17.50
2022-10-31T21:09:34.997Z,26.73
2022-10-31T21:12:07.520Z,29.67
2022-10-31T21:14:37.936Z,22.48
2022-10-31T21:17:08.112Z,26.00
2022-10-31T21:19:37.976Z,20.83
2022-10-31T21:22:07.817Z,14.43
2022-10-31T21:24:37.741Z,9.38
2022-10-31T21:27:12.584Z,7.93
2022-10-31T21:29:42.565Z,6.72
2022-10-31T21:32:12.428Z,6.35
2022-10-31T21:34:42.256Z,8.52
2022-10-31T21:37:12.089Z,6.57
2022-10-31T21:39:45.618Z,5.90
2022-10-31T21:42:21.728Z,8.65
2022-10-31T21:44:51.816Z,5.30
2022-10-31T21:47:21.644Z,5.85
2022-10-31T21:49:51.537Z,8.90
2022-10-31T21:52:21.906Z,8.18
2022-10-31T21:54:49.166Z,6.28
2022-10-31T21:59:52.448Z,3.65
2022-10-31T22:02:22.331Z,4.82
2022-10-31T22:04:52.666Z,4.53
2022-10-31T22:07:22.517Z,4.88
2022-10-31T22:09:52.363Z,4.45
2022-10-31T22:12:24.873Z,4.70
2022-10-31T22:14:54.718Z,4.28
2022-10-31T22:17:24.552Z,4.22
2022-10-31T22:19:54.563Z,4.72
2022-10-31T22:22:24.412Z,4.20
2022-10-31T22:24:54.275Z,4.07
2022-10-31T22:27:26.716Z,4.28
2022-10-31T22:29:56.917Z,4.22
2022-10-31T22:32:27.371Z,4.03
2022-10-31T22:34:57.262Z,4.72
2022-10-31T22:37:27.149Z,4.47
2022-10-31T22:39:56.987Z,4.00
2022-10-31T22:42:29.469Z,8.23
2022-10-31T22:45:01.754Z,5.68
2022-10-31T22:47:31.713Z,6.40
2022-10-31T22:50:01.576Z,4.53
2022-10-31T22:52:31.459Z,6.50
2022-10-31T22:55:01.281Z,5.82
2022-10-31T22:57:33.730Z,5.38
2022-10-31T23:00:03.611Z,5.65
2022-10-31T23:02:33.483Z,4.25
2022-10-31T23:05:03.429Z,5.13
2022-10-31T23:07:33.323Z,6.82
2022-10-31T23:10:03.170Z,6.13
2022-10-31T23:12:48.053Z,5.82
2022-10-31T23:15:18.105Z,6.78
2022-10-31T23:17:47.975Z,6.40
2022-10-31T23:20:17.837Z,5.38
2022-10-31T23:22:47.696Z,6.35
2022-10-31T23:25:29.947Z,7.43
2022-10-31T23:28:02.364Z,5.55
2022-10-31T23:30:32.227Z,5.20
2022-10-31T23:33:02.375Z,70.00
2022-10-31T23:35:32.457Z,44.40
2022-10-31T23:38:02.446Z,52.10
2022-10-31T23:40:32.492Z,17.30
2022-10-31T23:43:04.940Z,15.70
2022-10-31T23:45:34.825Z,15.43
2022-10-31T23:48:04.758Z,9.85
2022-10-31T23:50:34.636Z,7.85
2022-10-31T23:53:04.472Z,6.88
2022-10-31T23:55:34.948Z,5.85
2022-10-31T23:58:07.383Z,6.95
